createdAt,value
2023-01-17T00:01:51.380Z,5.34
2023-01-17T00:04:36.535Z,5.31
2023-01-17T00:07:21.535Z,5.36
2023-01-17T00:09:58.356Z,5.35
2023-01-17T00:12:28.082Z,5.35
2023-01-17T00:14:57.104Z,5.32
2023-01-17T00:17:26.432Z,5.24
2023-01-17T00:20:11.875Z,5.22
2023-01-17T00:22:57.141Z,5.22
2023-01-17T00:25:47.608Z,5.29
2023-01-17T00:28:14.803Z,5.20
2023-01-17T00:30:41.428Z,5.14
2023-01-17T00:33:08.006Z,5.08
2023-01-17T00:35:34.959Z,5.13
2023-01-17T00:38:03.282Z,5.18
2023-01-17T00:40:31.393Z,5.25
2023-01-17T00:43:16.673Z,5.41
2023-01-17T00:46:03.302Z,5.50
2023-01-17T00:48:49.061Z,5.56
2023-01-17T00:51:34.474Z,5.56
2023-01-17T00:54:19.944Z,5.65
2023-01-17T00:57:06.585Z,5.67
2023-01-17T00:59:51.880Z,5.61
2023-01-17T01:02:37.400Z,5.68
2023-01-17T01:05:23.286Z,5.49
2023-01-17T01:08:08.639Z,5.44
2023-01-17T01:10:53.850Z,5.08
2023-01-17T01:13:43.301Z,4.96
2023-01-17T01:16:28.598Z,4.79
2023-01-17T01:19:13.801Z,4.76
2023-01-17T01:21:59.093Z,4.79
2023-01-17T01:24:44.294Z,4.88
2023-01-17T01:27:29.990Z,4.92
2023-01-17T01:30:16.509Z,5.03
2023-01-17T01:33:01.720Z,5.08
2023-01-17T01:35:29.285Z,4.93
2023-01-17T01:37:56.871Z,4.92
2023-01-17T01:40:24.551Z,4.92
2023-01-17T01:42:53.512Z,4.97
2023-01-17T01:45:25.183Z,5.02
2023-01-17T01:47:57.991Z,4.99
2023-01-17T01:50:25.721Z,5.04
2023-01-17T01:52:56.871Z,4.93
2023-01-17T01:55:28.837Z,4.96
2023-01-17T01:58:03.133Z,4.80
2023-01-17T02:00:36.447Z,4.87
2023-01-17T02:03:08.047Z,4.87
2023-01-17T02:05:36.869Z,4.94
2023-01-17T02:08:07.945Z,4.93
2023-01-17T02:10:37.087Z,4.93
2023-01-17T02:13:06.785Z,4.92
2023-01-17T02:15:44.465Z,4.89
2023-01-17T02:18:22.659Z,4.95
2023-01-17T02:21:09.247Z,4.95
2023-01-17T02:24:17.176Z,4.97
2023-01-17T02:27:00.814Z,4.97
2023-01-17T02:30:21.412Z,5.02
2023-01-17T02:33:04.315Z,4.99
2023-01-17T02:35:39.062Z,5.02
2023-01-17T02:38:21.455Z,5.03
2023-01-17T02:40:53.594Z,4.88
2023-01-17T02:43:24.161Z,4.81
2023-01-17T02:45:51.960Z,4.83
2023-01-17T02:48:25.381Z,4.77
2023-01-17T02:51:12.543Z,4.83
2023-01-17T02:53:52.379Z,4.81
2023-01-17T02:56:35.196Z,4.77
2023-01-17T02:59:14.722Z,4.77
2023-01-17T03:01:57.067Z,4.67
2023-01-17T03:04:31.159Z,4.71
2023-01-17T03:07:02.705Z,4.70
2023-01-17T03:09:32.093Z,4.78
2023-01-17T03:12:00.760Z,4.79
2023-01-17T03:14:32.175Z,4.70
2023-01-17T03:17:00.038Z,4.60
2023-01-17T03:19:29.698Z,4.61
2023-01-17T03:21:57.268Z,4.65
2023-01-17T03:24:25.907Z,4.62
2023-01-17T03:26:54.168Z,4.64
2023-01-17T03:29:22.081Z,4.60
2023-01-17T03:31:49.851Z,4.69
2023-01-17T03:34:17.505Z,4.78
2023-01-17T03:36:46.629Z,4.82
2023-01-17T03:39:14.181Z,4.81
2023-01-17T03:41:41.756Z,4.88
2023-01-17T03:44:09.422Z,4.92
2023-01-17T03:46:37.445Z,4.89
2023-01-17T03:49:05.081Z,4.89
2023-01-17T03:51:32.822Z,4.80
2023-01-17T03:54:02.015Z,4.71
2023-01-17T03:56:29.676Z,4.61
2023-01-17T03:58:58.432Z,4.72
2023-01-17T04:01:26.299Z,4.82
2023-01-17T04:03:54.363Z,4.86
2023-01-17T04:06:22.013Z,4.85
2023-01-17T04:08:49.746Z,4.87
2023-01-17T04:11:18.790Z,4.86
2023-01-17T04:13:47.468Z,4.98
2023-01-17T04:16:18.506Z,4.98
2023-01-17T04:18:46.244Z,4.97
2023-01-17T04:21:13.851Z,5.02
2023-01-17T04:23:41.452Z,5.03
2023-01-17T04:26:10.340Z,4.94
2023-01-17T04:28:39.611Z,5.08
2023-01-17T04:31:07.512Z,4.96
2023-01-17T04:33:35.146Z,4.88
2023-01-17T04:36:02.802Z,4.91
2023-01-17T04:38:30.480Z,4.94
2023-01-17T04:40:58.315Z,4.86
2023-01-17T04:43:25.964Z,4.84
2023-01-17T04:45:57.126Z,4.80
2023-01-17T04:48:26.056Z,4.71
2023-01-17T04:51:00.204Z,4.74
2023-01-17T04:53:28.692Z,4.75
2023-01-17T04:55:56.333Z,4.82
2023-01-17T04:58:24.137Z,4.73
2023-01-17T05:00:51.846Z,4.74
2023-01-17T05:03:22.437Z,4.79
2023-01-17T05:05:50.188Z,4.69
2023-01-17T05:08:17.820Z,4.71
2023-01-17T05:10:46.822Z,4.80
2023-01-17T05:13:14.901Z,4.86
2023-01-17T05:15:42.729Z,4.75
2023-01-17T05:18:13.179Z,4.92
2023-01-17T05:20:42.270Z,4.99
2023-01-17T05:23:13.386Z,5.06
2023-01-17T05:25:45.405Z,4.89
2023-01-17T05:28:13.988Z,4.72
2023-01-17T05:30:42.130Z,4.32
2023-01-17T05:33:12.614Z,4.13
2023-01-17T05:35:41.616Z,4.05
2023-01-17T05:38:09.283Z,4.08
2023-01-17T05:40:37.087Z,4.25
2023-01-17T05:43:04.955Z,4.16
2023-01-17T05:45:33.934Z,4.13
2023-01-17T05:48:02.602Z,4.14
2023-01-17T05:50:32.279Z,4.14
2023-01-17T05:53:03.061Z,4.00
2023-01-17T05:55:32.805Z,3.94
2023-01-17T05:58:01.980Z,3.95
2023-01-17T06:00:30.725Z,3.85
2023-01-17T06:03:00.239Z,3.88
2023-01-17T06:05:29.463Z,3.82
2023-01-17T06:07:58.573Z,3.90
2023-01-17T06:10:28.194Z,3.98
2023-01-17T06:13:02.903Z,3.96
2023-01-17T06:15:30.666Z,3.93
2023-01-17T06:17:58.254Z,3.90
2023-01-17T06:20:26.062Z,3.77
2023-01-17T06:22:55.235Z,3.86
2023-01-17T06:25:22.949Z,3.76
2023-01-17T06:27:54.681Z,3.83
2023-01-17T06:30:22.798Z,3.82
2023-01-17T06:32:53.539Z,3.80
2023-01-17T06:35:21.189Z,3.72
2023-01-17T06:37:52.206Z,3.73
2023-01-17T06:40:20.089Z,3.73
2023-01-17T06:42:47.659Z,3.81
2023-01-17T06:45:16.784Z,3.88
2023-01-17T06:47:45.264Z,3.98
2023-01-17T06:50:14.913Z,3.82
2023-01-17T06:52:43.320Z,3.83
2023-01-17T06:55:11.469Z,3.77
2023-01-17T06:57:39.032Z,3.81
2023-01-17T07:00:07.906Z,3.86
2023-01-17T07:02:36.794Z,3.74
2023-01-17T07:05:04.518Z,3.74
2023-01-17T07:07:33.833Z,3.75
2023-01-17T07:10:03.460Z,3.82
2023-01-17T07:12:31.045Z,3.91
2023-01-17T07:14:58.699Z,3.73
2023-01-17T07:17:26.301Z,3.63
2023-01-17T07:19:55.260Z,3.72
2023-01-17T07:22:23.076Z,3.89
2023-01-17T07:24:50.650Z,3.89
2023-01-17T07:27:18.204Z,3.72
2023-01-17T07:29:45.805Z,3.71
2023-01-17T07:32:13.367Z,3.50
2023-01-17T07:34:42.662Z,3.40
2023-01-17T07:37:13.670Z,3.53
2023-01-17T07:39:42.646Z,3.63
2023-01-17T07:42:10.229Z,3.61
2023-01-17T07:44:41.273Z,3.53
2023-01-17T07:47:09.064Z,3.62
2023-01-17T07:49:36.721Z,3.66
2023-01-17T07:52:04.669Z,3.66
2023-01-17T07:54:33.890Z,3.63
2023-01-17T07:57:02.621Z,3.76
2023-01-17T07:59:30.242Z,3.89
2023-01-17T08:01:58.015Z,3.82
2023-01-17T08:04:26.687Z,3.81
2023-01-17T08:06:54.946Z,3.74
2023-01-17T08:09:22.728Z,3.82
2023-01-17T08:11:51.670Z,3.80
2023-01-17T08:14:19.250Z,3.74
2023-01-17T08:16:46.937Z,3.77
2023-01-17T08:19:16.665Z,3.66
2023-01-17T08:21:44.282Z,3.83
2023-01-17T08:24:13.258Z,3.77
2023-01-17T08:26:41.284Z,3.67
2023-01-17T08:29:10.370Z,3.79
2023-01-17T08:31:38.038Z,3.65
2023-01-17T08:34:05.664Z,3.67
2023-01-17T08:36:33.365Z,3.74
2023-01-17T08:39:01.025Z,3.72
2023-01-17T08:41:28.630Z,3.78
2023-01-17T08:43:56.167Z,3.72
2023-01-17T08:46:25.570Z,3.83
2023-01-17T08:48:56.430Z,3.96
2023-01-17T08:51:26.231Z,3.95
2023-01-17T08:53:54.200Z,3.83
2023-01-17T08:56:21.751Z,3.70
2023-01-17T08:58:49.405Z,3.77
2023-01-17T09:01:17.299Z,3.82
2023-01-17T09:03:46.434Z,3.85
2023-01-17T09:06:15.848Z,3.96
2023-01-17T09:08:46.973Z,4.03
2023-01-17T09:11:16.697Z,4.15
2023-01-17T09:13:44.482Z,4.11
2023-01-17T09:16:12.142Z,4.13
2023-01-17T09:18:39.820Z,4.29
2023-01-17T09:21:13.437Z,4.33
2023-01-17T09:23:41.324Z,4.38
2023-01-17T09:26:18.106Z,4.27
2023-01-17T09:28:45.733Z,4.26
2023-01-17T09:31:13.337Z,4.26
2023-01-17T09:33:42.620Z,4.28
2023-01-17T09:36:12.006Z,4.36
2023-01-17T09:38:40.098Z,4.37
2023-01-17T09:41:22.732Z,4.44
2023-01-17T09:43:53.141Z,4.40
2023-01-17T09:46:25.115Z,4.47
2023-01-17T09:49:00.286Z,4.42
2023-01-17T09:51:29.592Z,4.51
2023-01-17T09:53:57.271Z,4.60
2023-01-17T09:56:29.953Z,4.44
2023-01-17T09:59:16.840Z,4.54
2023-01-17T10:01:51.229Z,4.59
2023-01-17T10:04:34.209Z,4.62
2023-01-17T10:07:14.201Z,4.67
2023-01-17T10:09:57.966Z,4.50
2023-01-17T10:12:34.057Z,4.57
2023-01-17T10:15:26.674Z,4.71
2023-01-17T10:18:03.827Z,4.67
2023-01-17T10:20:46.117Z,4.60
2023-01-17T10:23:34.311Z,4.69
2023-01-17T10:26:04.808Z,4.69
2023-01-17T10:28:38.451Z,4.73
2023-01-17T10:31:09.230Z,4.78
2023-01-17T10:33:42.254Z,4.73
2023-01-17T10:36:15.623Z,4.69
2023-01-17T10:38:48.316Z,4.70
2023-01-17T10:41:21.099Z,4.71
2023-01-17T10:43:55.210Z,4.73
2023-01-17T10:46:28.524Z,4.75
2023-01-17T10:48:57.649Z,4.57
2023-01-17T10:52:00.465Z,4.58
2023-01-17T10:54:51.293Z,4.50
2023-01-17T10:57:22.372Z,4.59
2023-01-17T10:59:50.535Z,4.49
2023-01-17T11:02:25.336Z,4.58
2023-01-17T11:04:55.236Z,4.66
2023-01-17T11:07:25.706Z,4.74
2023-01-17T11:09:56.722Z,4.71
2023-01-17T11:12:30.009Z,4.64
2023-01-17T11:15:07.680Z,4.73
2023-01-17T11:17:37.744Z,4.83
2023-01-17T11:20:15.416Z,4.89
2023-01-17T11:22:46.820Z,4.93
2023-01-17T11:25:23.218Z,4.83
2023-01-17T11:28:00.480Z,4.70
2023-01-17T11:30:29.397Z,4.73
2023-01-17T11:32:58.278Z,4.71
2023-01-17T11:35:28.855Z,4.59
2023-01-17T11:38:06.199Z,4.72
2023-01-17T11:40:39.457Z,4.71
2023-01-17T11:43:20.793Z,4.84
2023-01-17T11:46:02.344Z,4.74
2023-01-17T11:48:35.800Z,4.81
2023-01-17T11:51:04.935Z,4.88
2023-01-17T11:53:35.582Z,5.00
2023-01-17T11:56:07.828Z,4.99
2023-01-17T11:58:37.782Z,4.90
2023-01-17T12:01:27.213Z,4.91
2023-01-17T12:04:18.535Z,4.91
2023-01-17T12:06:58.031Z,4.88
2023-01-17T12:09:32.965Z,4.90
2023-01-17T12:12:28.265Z,4.87
2023-01-17T12:15:06.755Z,4.91
2023-01-17T12:17:53.771Z,4.93
2023-01-17T12:20:28.692Z,4.96
2023-01-17T12:23:18.039Z,4.81
2023-01-17T12:25:57.502Z,4.87
2023-01-17T12:28:56.428Z,4.99
2023-01-17T12:31:33.317Z,5.00
2023-01-17T12:34:15.903Z,5.09
2023-01-17T12:36:49.581Z,5.25
2023-01-17T12:39:20.413Z,5.26
2023-01-17T12:42:01.825Z,5.13
2023-01-17T12:44:41.037Z,5.02
2023-01-17T12:47:10.153Z,5.02
2023-01-17T12:49:41.891Z,5.02
2023-01-17T12:52:17.530Z,5.05
2023-01-17T12:54:48.864Z,5.05
2023-01-17T12:57:21.267Z,5.05
2023-01-17T12:59:55.542Z,5.03
2023-01-17T13:02:32.552Z,5.13
2023-01-17T13:05:07.777Z,5.25
2023-01-17T13:07:45.077Z,5.14
2023-01-17T13:10:30.953Z,5.13
2023-01-17T13:13:04.148Z,5.16
2023-01-17T13:15:38.267Z,5.09
2023-01-17T13:18:13.903Z,5.09
2023-01-17T13:21:23.341Z,5.07
2023-01-17T13:24:15.320Z,4.82
2023-01-17T13:26:57.718Z,4.90
2023-01-17T13:29:36.602Z,5.02
2023-01-17T13:32:21.990Z,4.94
2023-01-17T13:35:07.465Z,4.96
2023-01-17T13:37:49.253Z,4.94
2023-01-17T13:40:32.821Z,4.92
2023-01-17T13:43:02.465Z,4.91
2023-01-17T13:45:32.461Z,4.90
2023-01-17T13:48:32.160Z,4.89
2023-01-17T13:51:02.178Z,4.89
2023-01-17T13:54:03.958Z,4.93
2023-01-17T13:56:34.912Z,5.02
2023-01-17T13:59:05.137Z,5.02
2023-01-17T14:01:51.028Z,4.98
2023-01-17T14:04:20.579Z,4.92
2023-01-17T14:06:52.787Z,4.94
2023-01-17T14:09:25.723Z,4.89
2023-01-17T14:12:03.725Z,4.78
2023-01-17T14:15:03.133Z,4.84
2023-01-17T14:17:52.097Z,4.81
2023-01-17T14:20:50.160Z,4.78
2023-01-17T14:23:47.284Z,4.73
2023-01-17T14:26:24.043Z,4.70
2023-01-17T14:28:52.808Z,4.55
2023-01-17T14:31:22.815Z,4.55
2023-01-17T14:33:50.521Z,4.52
2023-01-17T14:36:28.696Z,4.57
2023-01-17T14:38:56.366Z,4.57
2023-01-17T14:41:27.000Z,4.55
2023-01-17T14:43:55.182Z,4.57
2023-01-17T14:46:27.198Z,4.50
2023-01-17T14:49:02.238Z,4.37
2023-01-17T14:51:34.917Z,4.34
2023-01-17T14:54:05.488Z,4.47
2023-01-17T14:56:33.721Z,4.45
2023-01-17T14:59:16.776Z,4.45
2023-01-17T15:01:55.194Z,4.50
2023-01-17T15:04:31.874Z,4.56
2023-01-17T15:07:01.147Z,4.58
2023-01-17T15:09:34.846Z,4.59
2023-01-17T15:12:04.036Z,4.69
2023-01-17T15:14:35.690Z,4.67
2023-01-17T15:17:10.943Z,4.68
2023-01-17T15:19:43.588Z,4.65
2023-01-17T15:22:13.490Z,4.65
2023-01-17T15:24:44.445Z,4.73
2023-01-17T15:27:13.799Z,4.71
2023-01-17T15:29:42.442Z,4.63
2023-01-17T15:32:18.973Z,4.62
2023-01-17T15:34:48.948Z,4.59
2023-01-17T15:37:29.524Z,4.54
2023-01-17T15:40:07.140Z,4.48
2023-01-17T15:42:37.210Z,4.54
2023-01-17T15:45:09.431Z,4.54
2023-01-17T15:47:38.861Z,4.50
2023-01-17T15:50:27.735Z,4.50
2023-01-17T15:52:58.551Z,4.43
2023-01-17T15:55:32.288Z,4.39
2023-01-17T15:58:00.911Z,4.43
2023-01-17T16:00:37.694Z,4.46
2023-01-17T16:03:22.393Z,4.41
2023-01-17T16:05:50.741Z,4.49
2023-01-17T16:08:27.398Z,4.50
2023-01-17T16:10:58.976Z,4.49
2023-01-17T16:13:26.674Z,4.51
2023-01-17T16:15:54.596Z,4.38
2023-01-17T16:18:25.554Z,4.28
2023-01-17T16:21:00.478Z,4.09
2023-01-17T16:23:29.627Z,4.18
2023-01-17T16:25:57.371Z,4.25
2023-01-17T16:28:25.016Z,4.23
2023-01-17T16:30:54.854Z,4.25
2023-01-17T16:33:22.515Z,4.32
2023-01-17T16:35:52.252Z,4.22
2023-01-17T16:38:20.416Z,4.16
2023-01-17T16:40:49.475Z,4.20
2023-01-17T16:43:18.955Z,4.17
2023-01-17T16:45:48.661Z,4.24
2023-01-17T16:48:19.183Z,4.13
2023-01-17T16:50:50.531Z,4.14
2023-01-17T16:53:22.026Z,4.27
2023-01-17T16:55:56.309Z,4.38
2023-01-17T16:58:24.300Z,4.49
2023-01-17T17:00:52.129Z,4.50
2023-01-17T17:03:21.448Z,4.56
2023-01-17T17:05:56.539Z,4.56
2023-01-17T17:08:25.054Z,4.52
2023-01-17T17:10:53.952Z,4.44
2023-01-17T17:13:22.491Z,4.43
2023-01-17T17:15:50.760Z,4.32
2023-01-17T17:18:18.927Z,4.29
2023-01-17T17:20:46.911Z,4.12
2023-01-17T17:23:14.955Z,4.13
2023-01-17T17:25:42.759Z,4.17
2023-01-17T17:28:12.756Z,4.15
2023-01-17T17:30:40.325Z,4.14
2023-01-17T17:33:08.210Z,4.10
2023-01-17T17:35:35.874Z,3.99
2023-01-17T17:38:05.540Z,3.95
2023-01-17T17:40:35.327Z,3.84
2023-01-17T17:43:03.098Z,3.79
2023-01-17T17:45:32.059Z,3.87
2023-01-17T17:47:59.942Z,3.80
2023-01-17T17:50:27.540Z,3.74
2023-01-17T17:52:55.173Z,3.74
2023-01-17T17:55:22.737Z,3.83
2023-01-17T17:57:50.410Z,3.82
2023-01-17T18:00:19.027Z,3.86
2023-01-17T18:02:48.040Z,3.87
2023-01-17T18:05:15.771Z,3.92
2023-01-17T18:07:43.493Z,3.93
2023-01-17T18:10:11.529Z,3.91
2023-01-17T18:12:39.130Z,3.90
2023-01-17T18:15:07.586Z,3.92
2023-01-17T18:17:35.436Z,3.96
2023-01-17T18:20:07.379Z,3.98
2023-01-17T18:22:35.266Z,3.88
2023-01-17T18:25:02.918Z,3.86
2023-01-17T18:27:30.528Z,3.88
2023-01-17T18:29:58.360Z,3.92
2023-01-17T18:32:25.943Z,3.86
2023-01-17T18:34:53.845Z,3.78
2023-01-17T18:37:23.075Z,3.78
2023-01-17T18:39:50.708Z,3.85
2023-01-17T18:42:18.323Z,3.81
2023-01-17T18:44:46.045Z,3.72
2023-01-17T18:47:13.650Z,3.71
2023-01-17T18:49:41.248Z,3.66
2023-01-17T18:52:09.421Z,3.76
2023-01-17T18:54:38.549Z,3.77
2023-01-17T18:57:06.250Z,3.70
2023-01-17T18:59:34.238Z,3.76
2023-01-17T19:02:01.860Z,3.76
2023-01-17T19:04:31.638Z,3.77
2023-01-17T19:06:59.593Z,3.67
2023-01-17T19:09:27.480Z,3.62
2023-01-17T19:11:56.877Z,3.62
2023-01-17T19:14:25.227Z,3.64
2023-01-17T19:16:52.958Z,3.66
2023-01-17T19:19:20.722Z,3.68
2023-01-17T19:21:51.133Z,3.67
2023-01-17T19:24:19.141Z,3.66
2023-01-17T19:26:47.714Z,3.65
2023-01-17T19:29:16.640Z,3.58
2023-01-17T19:31:47.602Z,3.60
2023-01-17T19:34:18.801Z,3.62
2023-01-17T19:36:47.050Z,3.64
2023-01-17T19:39:14.903Z,3.66
2023-01-17T19:41:44.526Z,3.67
2023-01-17T19:44:14.168Z,3.62
2023-01-17T19:46:43.742Z,3.62
2023-01-17T19:49:11.530Z,3.63
2023-01-17T19:51:40.229Z,3.51
2023-01-17T19:54:08.278Z,3.36
2023-01-17T19:56:36.028Z,3.34
2023-01-17T19:59:03.795Z,3.31
2023-01-17T20:01:33.170Z,3.31
2023-01-17T20:04:03.730Z,3.36
2023-01-17T20:06:34.628Z,3.34
2023-01-17T20:09:03.631Z,3.26
2023-01-17T20:11:31.340Z,3.23
2023-01-17T20:14:01.700Z,3.16
2023-01-17T20:16:34.203Z,3.20
2023-01-17T20:19:03.415Z,3.16
2023-01-17T20:21:32.675Z,3.07
2023-01-17T20:24:03.130Z,3.10
2023-01-17T20:26:35.432Z,3.17
2023-01-17T20:29:07.308Z,3.22
2023-01-17T20:31:37.970Z,3.24
2023-01-17T20:34:08.268Z,3.23
2023-01-17T20:36:36.813Z,3.23
2023-01-17T20:39:05.550Z,3.22
2023-01-17T20:41:37.305Z,3.17
2023-01-17T20:44:07.496Z,3.21
2023-01-17T20:46:40.426Z,3.25
2023-01-17T20:49:15.058Z,3.23
2023-01-17T20:51:44.537Z,3.22
2023-01-17T20:54:14.876Z,3.19
2023-01-17T20:56:43.276Z,3.19
2023-01-17T20:59:14.385Z,3.16
2023-01-17T21:01:43.552Z,3.17
2023-01-17T21:04:15.449Z,3.14
2023-01-17T21:06:45.067Z,3.19
2023-01-17T21:09:15.185Z,3.38
2023-01-17T21:11:43.264Z,3.54
2023-01-17T21:14:11.086Z,3.62
2023-01-17T21:16:39.065Z,3.68
2023-01-17T21:19:09.170Z,3.65
2023-01-17T21:21:38.553Z,3.62
2023-01-17T21:24:06.528Z,3.52
2023-01-17T21:26:39.188Z,3.51
2023-01-17T21:29:07.060Z,3.50
2023-01-17T21:31:36.562Z,3.42
2023-01-17T21:34:05.937Z,3.38
2023-01-17T21:36:35.251Z,3.24
2023-01-17T21:39:06.579Z,3.26
2023-01-17T21:41:35.949Z,3.25
2023-01-17T21:44:07.785Z,3.28
2023-01-17T21:46:38.286Z,3.27
2023-01-17T21:49:06.874Z,3.32
2023-01-17T21:51:53.665Z,3.30
2023-01-17T21:54:43.933Z,3.29
2023-01-17T21:57:29.743Z,3.36
2023-01-17T21:59:57.473Z,3.32
2023-01-17T22:02:25.219Z,3.26
2023-01-17T22:04:54.491Z,3.25
2023-01-17T22:07:22.286Z,3.24
2023-01-17T22:09:51.164Z,3.11
2023-01-17T22:12:18.789Z,2.97
2023-01-17T22:14:46.387Z,3.05
2023-01-17T22:17:13.974Z,2.97
2023-01-17T22:19:41.559Z,2.95
2023-01-17T22:22:09.141Z,2.89
2023-01-17T22:24:36.755Z,2.88
2023-01-17T22:27:09.658Z,2.87
2023-01-17T22:29:37.441Z,2.87
2023-01-17T22:32:05.695Z,2.76
2023-01-17T22:34:33.364Z,2.73
2023-01-17T22:37:02.369Z,2.78
2023-01-17T22:39:30.003Z,2.81
2023-01-17T22:41:57.573Z,2.80
2023-01-17T22:44:26.526Z,2.68
2023-01-17T22:46:54.152Z,2.69
2023-01-17T22:49:23.323Z,2.58
2023-01-17T22:51:51.351Z,2.46
2023-01-17T22:54:19.253Z,2.37
2023-01-17T22:56:47.049Z,2.43
2023-01-17T22:59:15.060Z,2.40
2023-01-17T23:01:43.999Z,2.45
2023-01-17T23:04:14.301Z,2.46
2023-01-17T23:06:42.247Z,2.46
2023-01-17T23:09:11.735Z,2.47
2023-01-17T23:11:42.460Z,2.55
2023-01-17T23:14:13.811Z,2.57
2023-01-17T23:17:03.518Z,2.56
2023-01-17T23:19:33.780Z,2.51
2023-01-17T23:22:19.199Z,2.46
2023-01-17T23:24:49.808Z,2.55
2023-01-17T23:27:38.110Z,2.58
2023-01-17T23:30:08.105Z,2.42
2023-01-17T23:32:37.511Z,2.31
2023-01-17T23:35:06.586Z,2.31
2023-01-17T23:37:51.642Z,2.25
2023-01-17T23:40:19.623Z,2.22
2023-01-17T23:43:06.065Z,2.20
2023-01-17T23:45:35.237Z,2.24
2023-01-17T23:48:05.645Z,2.22
2023-01-17T23:50:34.048Z,2.23
2023-01-17T23:53:06.801Z,2.24
2023-01-17T23:55:36.205Z,2.23
2023-01-17T23:58:03.793Z,2.24
